Horsforth, United Kingdom
Current Conditions -  °F | °C
As of 9:50 PM on Thursday 27 Nov 2014 (Local Time) from EGNM Reporting Station
Moderate Fog Moderate Fog  
Wind Chill: 41°   Ceiling: Unl
Heat Index: 41°   Visibility: 0.12mi
Dew Point: 41°   Wind: 3mph
Humidity: 100%   Direction: NA
Pressure: 29.62"   Gusts: NA
Location:  53.84°N, 1.64°W
Report Text: EGNM 272150Z VRB03KT 0200 R32/0250 FG VV/// 05/05 Q1003
Loading
Personal Weather Stations






























Interactive Weather Map New forecast layout! Learn more

10-Day Weather Forecast

Advertisements
Track Severe Weather on mobile